Logo AVAMET
Benvolgut visitant, si us plau, ingressa Recuperar contrasenya
AVAMET paisatges

Inforatge el Puig de Santa Maria

Dades diàries. Acumulats / Últims 30 dies disponibles

Data Temperatura (°C) Humitat rel. (%) Pressió rel. (hPa) Vent (km/h) Precipitació
Mínima Mitjana Màxima Amplitud
tèrmica
Mínima Mitjana Màxima Mínima Mitjana Màxima Predom. Mitjana Ràfega
màxima
Total
(mm)
Índex-n
Mínima Mitjana Màxima Mínima Mitjana Màxima n
0 a 1
P0 max
mm 5'
Dades mensuals acumulades fins l'últim dia disponible
03/2020 5,7 10,3 15,2 14,0 11,6 17,6 25,5 19,8 24 70 96 998 1.017 1.029   8,3 82,1 55,0
Dades anuals acumulades fins l'últim dia disponible
2020 1,6 8,6 15,2 12,9 9,3 17,6 26,7 25,1 19 72 96 998 1.023 1.035   6,3 82,1 150,0
Últims 30 dies disponibles
30-03-2020 7,8     12,2     14,7 6,9 57 70 89 1.013 1.014 1.015 E 5,1 29,0 0,8
29-03-2020 7,3     14,2     21,4 14,1 35 65 83 1.013 1.016 1.019 WNW 6,9 30,6 0,0
28-03-2020 5,7     11,3     16,2 10,5 48 68 88 1.017 1.018 1.020 NW 4,2 20,9 0,0
27-03-2020 7,1     9,3     12,3 5,2 63 78 92 1.012 1.014 1.017 N 4,5 27,4 10,6 0,54 1,30
26-03-2020 6,4     10,4     15,9 9,5 36 72 91 1.008 1.010 1.014 NE 5,8 35,4 0,0
25-03-2020 8,0     9,9     11,6 3,6 75 81 90 1.015 1.017 1.019 NE 6,1 30,6 1,6
24-03-2020 11,5     13,7     14,6 3,1 68 79 89 1.016 1.018 1.019 ENE 15,3 51,5 0,0
23-03-2020 11,7     13,7     16,4 4,7 71 88 94 1.015 1.017 1.018 NE 8,9 37,0 14,4 0,34 1,90
22-03-2020 11,0     13,1     15,5 4,5 72 84 92 1.012 1.013 1.016 NE 6,6 30,6 5,6 0,12 0,40
21-03-2020 11,2     13,1     14,6 3,4 72 80 87 1.012 1.015 1.018 NE 4,8 24,1 0,0
20-03-2020 12,3     13,6     15,5 3,2 73 82 89 1.018 1.019 1.021 NE 8,0 29,0 0,0
19-03-2020 11,6     13,4     15,6 4,0 75 84 90 1.021 1.023 1.026 E 7,2 27,4 0,0
18-03-2020 12,0     14,0     16,1 4,1 70 81 89 1.025 1.027 1.029 NE 7,2 32,2 0,0
17-03-2020 9,8     12,8     14,8 5,0 84 93 96 1.020 1.025 1.029 NE 6,8 45,1 17,4 0,48 0,80
16-03-2020 10,2     12,6     14,7 4,5 69 85 93 1.011 1.014 1.020 E 9,3 35,4 4,4 0,20
15-03-2020 10,4     14,2     17,3 6,9 68 82 89 1.015 1.018 1.021 ESE 5,0 25,7 0,0
14-03-2020 9,7     13,9     17,2 7,5 64 81 88 1.019 1.020 1.022 ESE 4,0 20,9 0,0
13-03-2020 11,4     14,7     17,7 6,3 64 80 95 1.019 1.020 1.022 E 5,8 32,2 0,0
12-03-2020 11,0     14,0     16,8 5,8 73 84 93 1.017 1.020 1.022 E 4,5 19,3 0,0
11-03-2020 9,6     14,9     20,4 10,8 52 71 80 1.022 1.023 1.024 E 3,9 20,9 0,0
10-03-2020 11,2     14,8     17,1 5,9 36 60 76 1.023 1.024 1.027 S 4,7 29,0 0,0
09-03-2020 11,8     17,2     22,4 10,6 26 45 68 1.020 1.022 1.024 NNW 11,1 49,9 0,0
08-03-2020 8,1     13,7     19,4 11,3 38 62 73 1.021 1.023 1.025 WNW 4,5 22,5 0,0
07-03-2020 11,2     13,9     19,3 8,1 35 47 63 1.020 1.022 1.025 NW 10,1 49,9 0,0
06-03-2020 9,6     14,3     18,8 9,2 24 42 68 1.012 1.015 1.021 NW 15,0 78,9 0,0
05-03-2020 14,6     18,3     22,4 7,8 31 51 68 1.007 1.011 1.016 WNW 13,8 56,3 0,0
04-03-2020 12,8     19,5     25,5 12,7 37 54 76 1.014 1.016 1.018 WNW 9,3 35,4 0,0
03-03-2020 9,8     15,2     20,8 11,0 41 49 59 1.009 1.014 1.018 WNW 16,9 74,0 0,0
02-03-2020 10,4     16,8     20,7 10,3 25 48 62 998 1.006 1.017 WNW 20,3 82,1 0,2
01-03-2020 15,2     18,2     21,8 6,6 38 50 62 1.010 1.012 1.015 WNW 13,4 45,1 0,0
Últims 13 mesos disponibles
02/2020 4,9 8,9 12,3 13,9 14,2 19,5 26,7 21,8 46 71 89 1.013 1.025 1.033 WNW 4,6 54,7 1,0
01/2020 1,6 6,6 13,9 10,8 9,3 15,7 23,3 21,7 51 75 95 1.017 1.027 1.033 WNW 6,0 75,6 94,0
12/2019 4,4 9,7 16,6 13,5 13,0 17,9 24,6 20,2 50 70 92 1.001 1.019 1.033 WNW 7,5 77,2 67,2
11/2019 4,7 11,2 20,3 15,4 15,4 19,8 28,6 23,9 40 55 81 998 1.010 1.018 WNW 9,1 57,9 2,0
10/2019 10,7 15,6 20,7 19,9 17,0 24,3 28,2 17,5 47 70 85 1.007 1.017 1.022 WNW 5,2 40,2 24,8
09/2019 15,4 19,9 23,1 23,4 20,9 26,8 34,6 19,2 48 73 83 1.010 1.018 1.025 SSE 6,6 56,3 67,2
08/2019 18,1 22,2 26,3 25,9 26,4 29,4 41,3 23,2 47 72 82 1.011 1.016 1.021 S 6,4 46,7 7,2
07/2019 20,4 22,4 24,3 26,1 27,1 29,3 36,2 15,8 51 69 81 1.005 1.014 1.021 S 6,5 43,5 14,4
06/2019 12,9 18,0 22,3 21,9 20,1 25,3 32,8 19,9 48 67 83 1.008 1.016 1.022 E 6,8 56,3 0,0
05/2019 8,8 14,1 18,2 17,9 17,2 21,4 29,7 20,9 46 69 85 1.005 1.015 1.025 SSE 6,7 55,6 23,4
04/2019 7,9 11,1 14,2 15,0 15,4 19,2 27,3 19,4 44 66 93 999 1.013 1.025 O 8,4 64,8 40,8
03/2019 5,3 8,7 13,7 14,1 12,6 18,6 28,5 23,2 44 60 84 1.015 1.023 1.030 SSO 5,5 56,3 16,0
02/2019 2,0 6,5 10,9 11,7 13,3 17,0 23,1 21,1 32 66 80 994 1.025 1.035 SSO 5,5 69,3 0,0
Tots els anys disponibles
2019 2,0 14,1 26,3 18,3 12,6 22,3 41,3 39,3 32 67 93 994 1.017 1.035 WNW 6,7 77,2 263,0
Temperatura (°C)
Humitat relativa (%)
Velocitat del vent i ràfega màxima (km/h)
Direcció del vent (°)
Pressió (hPa)
Precipitació (mm)
Nota sobre les dades: s'avisa a l'usuari de la provisionalitat i no oficialitat d'aquestes dades
Logo AVAMET blanc
Web allotjada a Sollutia
Llicència de Creative CommonsLa web d'AVAMET i els seus continguts estan subjectes a una llicència de
Reconeixement - No Comercial - Compartir igual
Últimes estacions:  Altea - Com. Regants (Soci), Almoines (Inforatge), Beniparrell (Inforatge), Albal (Inforatge), Almussafes - Parc Industrial (Inforatge), La Vilavella (Soci), la Serratella (soci) - - -